Billings, MT

3:47 PM MDT on August 22, 2014 (GMT -0600)
South of Castle Rock Park | Change Station
CLOSE
Current Station
Personal Weather Station
Location: Billings, MT
Elevation: 3297 ft
Nearby Weather Stations

Elev 3297 ft 45.82 °N, 108.50 °W | Updated 5 seconds ago

Mostly Cloudy
Mostly Cloudy
68.8 °F
Feels Like 68.8 °F
N
1.1
Wind Variable Wind from NE
Gusts 4.9 mph

Today
High -- | Low -- °F
--% Chance of Precip.
Yesterday
High -- | Low -- °F
Precip. -- in
6:22 AM 8:10 PM
Waning Crescent, 6% visible
Pressure 30.05 in
Visibility 10.0 miles
Clouds Few 1000 ft
Mostly Cloudy 1700 ft
Mostly Cloudy 3300 ft
Dew Point 60 °F
Humidity 73%
Rainfall 0.00 in
Snow Depth Not available.
UV 4 out of 12
Pollen 3.80 out of 12
Air Quality Not available.
Flu Activity Not available.
METAR KBIL 222053Z 04008KT 10SM FEW010 BKN017 BKN033 18/14 A3005

More Conditions Fewer Conditions

Pressure 30.05 in
Visibility 10.0 miles
Clouds Few 1000 ft
Mostly Cloudy 1700 ft
Mostly Cloudy 3300 ft
Dew Point 60 °F
Humidity 73%
Rainfall 0.00 in
Snow Depth Not available.
UV 4 out of 12
Pollen 3.80 out of 12
Air Quality Not available.
Flu Activity Not available.
METAR KBIL 222053Z 04008KT 10SM FEW010 BKN017 BKN033 18/14 A3005

More Conditions Fewer Conditions

10-Day Weather Forecast

Almanac

Astronomy

Aug. 22, 2014 Rise Set
Actual Time 6:22 AM MDT 8:10 PM MDT
Civil Twilight 5:50 AM MDT 8:41 PM MDT
Nautical Twilight 5:12 AM MDT 9:20 PM MDT
Astronomical Twilight 4:29 AM MDT 10:02 PM MDT
Moon 3:44 AM MDT 6:23 PM MDT
Length of Visible Light 14h 50m
Length of Day
13h 47m
Tomorrow will be 3m 1s shorter.
Waning Crescent, 6% of the Moon is Illuminated
Today
Waning Crescent
Aug 25
New
Sep 2
First Quarter
Sep 8
Full
Sep 15
Last Quarter

Today's Extremes

State Highs State Lows

Community

WunderPhotos

Upload Photos

1,746,260 photos uploaded!

Nearby

Snow Depth

Station Depth Elevation
Cole Creek 0 in 7850 ft
Burnt Mountain 0 in 5880 ft
Crystal Lake 0 in 6050 ft
Placer Basin 0 in 8830 ft
White Mill 2 in 8700 ft

Earthquake Activity

City Distance Mag. Time & Date
No recent earthquake activity has been reported nearby.
Minimum magnitude displayed is 2.5.

Coastal Water Temperatures

Place Temperature
No Stations Reporting

Nearby Weather Stations